Time;durP1;ratioP1;P1;durP2;ratioP2;P2;SDS_P1;SDS_P2;PMS_P1;PMS_P2;Temp;Humidity;BMP_temperature;BMP_pressure;BME280_temperature;BME280_humidity;BME280_pressure;Samples;Min_cycle;Max_cycle;Signal;HPM_P1;HPM_P2
2022/11/11 00:02:50;;;;;;;16.92;4.88;;;;;;;6.36;84.17;102181.94;6173945;23;20036;-87
2022/11/11 00:06:15;;;;;;;12.00;4.43;;;;;;;6.52;82.95;102195.66;6120822;23;20048;-86
2022/11/11 00:09:37;;;;;;;14.05;5.72;;;;;;;6.39;84.02;102201.84;6121085;23;20403;-84
2022/11/11 00:13:04;;;;;;;13.20;4.32;;;;;;;6.31;83.97;102201.00;6121088;23;20064;-84
2022/11/11 00:25:04;;;;;;;14.15;4.32;;;;;;;6.22;84.48;102202.81;6121040;23;20095;-84
2022/11/11 00:27:32;;;;;;;15.18;5.13;;;;;;;6.11;84.91;102209.81;6122502;23;20101;-84
2022/11/11 00:31:01;;;;;;;18.88;5.22;;;;;;;5.83;86.53;102203.91;6122450;23;20087;-83
2022/11/11 00:34:23;;;;;;;26.10;4.50;;;;;;;5.96;85.84;102202.13;6122424;23;20064;-83
2022/11/11 00:37:47;;;;;;;14.35;4.78;;;;;;;5.93;86.56;102220.31;6122267;23;20029;-82
2022/11/11 00:41:15;;;;;;;11.65;4.95;;;;;;;6.02;85.74;102213.31;6122380;23;20467;-82
2022/11/11 00:44:37;;;;;;;9.02;4.82;;;;;;;6.10;85.28;102208.09;6122413;23;20071;-82
2022/11/11 00:51:40;;;;;;;15.68;5.78;;;;;;;5.85;86.08;102214.28;6122304;23;20083;-84
2022/11/11 00:55:03;;;;;;;10.13;5.00;;;;;;;5.81;86.46;102205.66;6122303;23;20533;-87
2022/11/11 00:58:27;;;;;;;7.80;4.78;;;;;;;5.89;86.01;102200.41;6122417;23;20045;-87
2022/11/11 01:01:50;;;;;;;12.82;4.80;;;;;;;5.93;85.90;102189.16;6122317;23;20402;-87
2022/11/11 01:05:13;;;;;;;23.55;4.78;;;;;;;5.94;86.19;102180.53;6122239;23;20024;-87
2022/11/11 01:08:35;;;;;;;7.38;4.15;;;;;;;5.93;86.27;102183.97;6130918;23;20355;-87
2022/11/11 01:11:57;;;;;;;13.68;4.43;;;;;;;5.89;86.64;102184.84;6122238;23;20521;-87
2022/11/11 01:15:19;;;;;;;47.00;4.97;;;;;;;5.71;86.72;102194.47;6104284;23;20064;-87
2022/11/11 01:18:41;;;;;;;24.63;4.43;;;;;;;5.89;87.54;102190.03;6122156;23;20072;-84
2022/11/11 01:22:03;;;;;;;11.13;3.55;;;;;;;5.85;87.02;102185.72;6122115;23;20030;-85
2022/11/11 01:25:25;;;;;;;5.38;3.72;;;;;;;5.90;86.06;102183.94;6104263;23;20084;-84
2022/11/11 01:28:52;;;;;;;11.82;4.13;;;;;;;5.94;86.25;102181.38;6122201;23;20020;-84
2022/11/11 01:32:14;;;;;;;11.50;4.28;;;;;;;5.90;86.04;102183.94;6122097;23;20052;-84
2022/11/11 01:35:40;;;;;;;10.27;4.00;;;;;;;5.98;86.11;102192.59;6122164;23;20032;-83
2022/11/11 01:39:03;;;;;;;6.20;3.67;;;;;;;5.90;86.38;102194.34;6122018;23;20094;-83
2022/11/11 01:42:25;;;;;;;8.00;4.43;;;;;;;5.96;85.93;102190.00;6122158;23;20359;-83
2022/11/11 01:45:51;;;;;;;5.90;3.72;;;;;;;6.04;85.67;102180.44;6122177;23;20025;-83
2022/11/11 01:49:23;;;;;;;10.88;4.75;;;;;;;6.16;84.75;102181.19;6122095;23;20078;-86
2022/11/11 01:52:45;;;;;;;12.55;4.15;;;;;;;5.95;84.56;102179.63;6122173;23;20029;-86
2022/11/11 01:56:11;;;;;;;5.82;3.90;;;;;;;5.93;84.51;102189.16;6122059;23;20028;-86
2022/11/11 01:59:36;;;;;;;5.35;3.55;;;;;;;5.99;83.38;102183.94;6122222;23;20021;-85
2022/11/11 02:03:03;;;;;;;6.43;3.08;;;;;;;6.04;83.33;102193.41;6122282;23;20083;-83
2022/11/11 02:06:27;;;;;;;5.57;3.17;;;;;;;6.12;82.04;102203.75;6108273;23;20474;-83
2022/11/11 02:09:51;;;;;;;6.57;3.10;;;;;;;6.06;82.43;102201.19;6122016;23;20041;-83
2022/11/11 02:16:55;;;;;;;4.47;2.70;;;;;;;6.03;83.15;102196.00;6122052;23;20040;-83
2022/11/11 02:25:28;;;;;;;6.13;3.30;;;;;;;6.04;82.58;102195.16;6121752;23;20021;-85
2022/11/11 02:28:53;;;;;;;6.20;2.97;;;;;;;6.13;82.34;102202.88;6121928;23;20071;-85
2022/11/11 02:32:15;;;;;;;6.85;3.10;;;;;;;6.12;82.77;102201.16;6122038;23;20029;-84
2022/11/11 02:35:43;;;;;;;5.15;3.40;;;;;;;5.99;83.19;102209.88;6121935;23;20028;-84
2022/11/11 02:39:04;;;;;;;6.35;3.53;;;;;;;6.23;81.58;102220.13;6121800;23;20398;-84
2022/11/11 02:42:26;;;;;;;10.65;3.55;;;;;;;6.17;82.59;102235.75;6122052;23;20379;-84
2022/11/11 02:45:49;;;;;;;5.05;3.15;;;;;;;6.08;82.75;102238.41;6121983;23;20025;-84
2022/11/11 02:49:11;;;;;;;6.88;3.80;;;;;;;6.30;81.61;102236.53;6121845;23;20021;-84
2022/11/11 02:52:33;;;;;;;6.13;3.38;;;;;;;6.31;80.73;102238.25;6121687;23;20025;-84
2022/11/11 02:55:55;;;;;;;10.60;5.15;;;;;;;6.19;81.31;102235.72;6121754;23;20028;-83
2022/11/11 02:59:17;;;;;;;6.53;3.10;;;;;;;6.07;82.96;102244.47;6121594;23;20028;-83
2022/11/11 03:02:39;;;;;;;8.73;2.97;;;;;;;6.07;82.33;102223.69;6121716;23;20039;-83
2022/11/11 03:06:01;;;;;;;9.00;4.07;;;;;;;6.03;83.21;102240.16;6121635;23;20518;-84
2022/11/11 03:09:24;;;;;;;9.55;3.33;;;;;;;6.01;82.82;102229.78;6128299;23;20025;-85
2022/11/11 03:12:46;;;;;;;6.05;3.65;;;;;;;6.19;82.05;102222.75;6110583;23;20033;-84
2022/11/11 03:17:38;;;;;;;10.10;3.90;;;;;;;6.16;81.66;102227.94;6125496;23;20025;-84
2022/11/11 03:19:50;;;;;;;5.88;3.28;;;;;;;6.17;82.69;102227.09;6125636;23;20028;-84
2022/11/11 03:23:16;;;;;;;10.00;4.07;;;;;;;6.23;81.75;102230.50;6125919;23;20538;-84
2022/11/11 03:26:39;;;;;;;8.95;4.45;;;;;;;6.23;82.51;102230.50;6126058;23;20539;-85
2022/11/11 03:30:01;;;;;;;11.38;4.28;;;;;;;6.22;82.50;102238.31;6103563;23;20064;-83
2022/11/11 03:33:23;;;;;;;15.73;4.72;;;;;;;6.23;82.72;102234.84;6121341;23;20064;-83
2022/11/11 03:40:27;;;;;;;9.07;3.50;;;;;;;6.11;84.87;102235.78;6123216;23;20079;-83
2022/11/11 03:43:50;;;;;;;12.80;4.60;;;;;;;6.19;84.63;102243.53;6121445;23;20028;-84
2022/11/11 03:47:15;;;;;;;14.05;4.07;;;;;;;6.31;84.01;102247.78;6175856;23;20072;-85
2022/11/11 03:50:37;;;;;;;6.15;3.78;;;;;;;6.24;84.30;102245.22;6121293;23;20356;-86
2022/11/11 03:53:59;;;;;;;11.18;4.75;;;;;;;6.34;83.74;102252.94;6121269;23;20060;-85
2022/11/11 03:57:30;;;;;;;9.48;4.03;;;;;;;6.26;83.80;102251.28;6122509;23;20093;-85
2022/11/11 04:00:52;;;;;;;10.35;4.05;;;;;;;6.27;83.89;102259.94;6122508;23;20032;-83
2022/11/11 04:11:39;;;;;;;12.75;4.95;;;;;;;6.31;84.87;102263.38;6122558;23;20056;-83
2022/11/11 04:22:42;;;;;;;16.00;6.00;;;;;;;6.49;84.43;102242.44;6154231;23;20024;-83
2022/11/11 04:26:04;;;;;;;19.33;5.85;;;;;;;6.38;85.03;102241.66;6146997;23;20028;-84
2022/11/11 04:29:27;;;;;;;15.13;6.32;;;;;;;6.45;85.63;102245.97;6122559;23;20025;-84
2022/11/11 04:32:56;;;;;;;21.45;6.90;;;;;;;6.28;85.94;102239.13;6122995;23;20080;-84
2022/11/11 04:36:18;;;;;;;22.10;7.60;;;;;;;6.38;86.93;102239.06;6171705;23;20111;-83
2022/11/11 04:43:22;;;;;;;19.30;7.70;;;;;;;6.59;85.88;102253.63;6122341;23;20072;-83
2022/11/11 04:46:44;;;;;;;23.20;7.60;;;;;;;6.44;86.63;102242.47;6122499;23;20025;-84
2022/11/11 04:50:06;;;;;;;22.90;9.25;;;;;;;6.53;86.64;102239.81;6108436;23;20024;-81
2022/11/11 04:53:29;;;;;;;18.13;8.57;;;;;;;6.38;87.37;102239.06;6122360;23;20052;-84
2022/11/11 04:56:52;;;;;;;19.20;8.45;;;;;;;6.23;88.55;102243.50;6122231;23;20148;-83
2022/11/11 05:00:17;;;;;;;18.60;8.30;;;;;;;6.27;88.86;102241.75;6122336;23;20033;-82
2022/11/11 05:03:38;;;;;;;17.35;8.32;;;;;;;6.55;87.86;102241.56;6122366;23;20029;-84
2022/11/11 05:10:41;;;;;;;18.35;7.97;;;;;;;6.46;88.68;102237.28;6122312;23;20029;-79
2022/11/11 05:21:28;;;;;;;17.33;7.80;;;;;;;6.53;88.96;102242.41;6122155;23;20495;-83
2022/11/11 05:28:32;;;;;;;10.85;6.78;;;;;;;6.57;89.00;102239.78;6120542;23;20020;-84
2022/11/11 05:32:00;;;;;;;11.52;7.32;;;;;;;6.60;88.42;102240.63;6161913;23;20033;-87
2022/11/11 05:35:22;;;;;;;10.98;7.18;;;;;;;6.53;88.65;102242.41;6119447;23;20482;-82
2022/11/11 05:39:34;;;;;;;10.75;7.65;;;;;;;6.59;88.66;102249.28;6118414;23;20534;-85
2022/11/11 05:42:57;;;;;;;9.00;7.35;;;;;;;6.55;88.93;102260.59;6118028;23;20110;-83
2022/11/11 05:46:20;;;;;;;8.90;7.15;;;;;;;6.49;89.41;102265.84;6117707;23;20040;-81
2022/11/11 05:49:45;;;;;;;9.65;7.28;;;;;;;6.62;88.99;102274.41;6118833;23;20025;-82
2022/11/11 05:53:08;;;;;;;11.82;7.40;;;;;;;6.68;88.44;102282.16;6120489;23;20029;-83
2022/11/11 05:56:30;;;;;;;12.25;9.23;;;;;;;6.66;88.94;102281.28;6121397;23;20459;-81
2022/11/11 05:59:57;;;;;;;14.82;9.77;;;;;;;6.71;88.58;102285.59;6118459;23;20052;-82
2022/11/11 06:03:23;;;;;;;13.02;8.35;;;;;;;6.75;88.75;102284.69;6116148;23;20037;-83
2022/11/11 06:06:56;;;;;;;11.77;7.90;;;;;;;6.55;89.55;102289.19;6097198;23;20029;-82
2022/11/11 06:10:33;;;;;;;12.13;7.22;;;;;;;6.48;90.09;102288.38;6115381;23;20351;-82
2022/11/11 06:14:07;;;;;;;11.27;7.57;;;;;;;6.62;89.53;102293.47;6098641;23;20036;-80
2022/11/11 06:17:44;;;;;;;10.73;7.35;;;;;;;6.72;88.99;102294.25;6115612;23;20033;-82
2022/11/11 06:21:09;;;;;;;10.63;6.80;;;;;;;6.63;89.15;102296.91;6115742;23;20055;-81
2022/11/11 06:24:46;;;;;;;8.48;6.18;;;;;;;6.56;89.25;102295.25;6097680;23;20084;-82
2022/11/11 06:28:37;;;;;;;7.47;6.30;;;;;;;6.60;89.07;102302.13;6116820;23;20048;-82
2022/11/11 06:32:02;;;;;;;8.32;5.25;;;;;;;6.51;89.18;102303.09;6103083;23;20032;-80
2022/11/11 06:36:16;;;;;;;6.25;5.53;;;;;;;6.55;88.97;102302.19;6113962;23;20103;-84
2022/11/11 06:39:41;;;;;;;7.60;5.78;;;;;;;6.62;87.97;102303.84;6101018;23;20033;-82
2022/11/11 06:43:03;;;;;;;8.60;5.25;;;;;;;6.60;87.77;102302.13;6120662;23;20083;-82
2022/11/11 06:46:31;;;;;;;6.38;5.38;;;;;;;6.58;87.66;102307.34;6120762;23;20356;-83
2022/11/11 06:49:54;;;;;;;6.88;5.45;;;;;;;6.42;88.42;102317.00;6120318;23;20041;-81
2022/11/11 06:53:17;;;;;;;9.05;5.32;;;;;;;6.29;88.48;102311.00;6120903;23;20505;-81
2022/11/11 06:56:39;;;;;;;6.60;5.22;;;;;;;6.28;88.34;102311.00;6120812;23;20033;-80
2022/11/11 07:00:03;;;;;;;7.05;5.60;;;;;;;6.34;88.24;102315.31;6120368;23;20044;-80
2022/11/11 07:03:27;;;;;;;12.30;4.72;;;;;;;6.31;88.10;102325.72;6119831;23;20032;-80
2022/11/11 07:06:48;;;;;;;5.88;4.60;;;;;;;6.45;88.08;102332.56;6119426;23;20360;-80
2022/11/11 07:10:14;;;;;;;9.23;5.53;;;;;;;6.35;88.22;102325.72;6120628;23;20115;-81
2022/11/11 07:13:39;;;;;;;6.57;4.95;;;;;;;6.26;88.53;102339.59;6120761;23;20024;-81
2022/11/11 07:17:01;;;;;;;6.35;5.15;;;;;;;6.28;88.83;102344.78;6120754;23;20037;-81
2022/11/11 07:20:24;;;;;;;7.40;4.60;;;;;;;6.18;89.21;102341.38;6120597;23;20040;-80
2022/11/11 07:23:46;;;;;;;7.65;4.97;;;;;;;6.29;88.51;102341.31;6120306;23;20028;-80
2022/11/11 07:27:07;;;;;;;9.73;6.28;;;;;;;6.65;87.49;102349.75;6120616;23;20025;-81
2022/11/11 07:30:30;;;;;;;8.85;5.95;;;;;;;6.53;87.38;102348.97;6121467;23;20352;-82
2022/11/11 07:33:53;;;;;;;9.23;6.85;;;;;;;6.47;87.68;102364.59;6121696;23;20032;-82
2022/11/11 07:37:15;;;;;;;7.00;5.68;;;;;;;6.50;88.18;102355.91;6121758;23;20099;-81
2022/11/11 07:40:37;;;;;;;10.02;5.72;;;;;;;6.48;88.05;102360.28;6101546;23;20100;-81
2022/11/11 07:43:59;;;;;;;6.80;5.70;;;;;;;6.55;87.66;102361.97;6114337;23;20391;-83
2022/11/11 07:47:21;;;;;;;7.40;5.15;;;;;;;6.57;87.62;102361.94;6105078;23;20029;-83
2022/11/11 07:51:37;;;;;;;7.55;6.13;;;;;;;6.66;87.35;102365.34;6119753;23;20021;-82
2022/11/11 07:55:15;;;;;;;6.45;4.60;;;;;;;6.60;87.76;102372.31;6121071;23;20044;-83
2022/11/11 07:58:47;;;;;;;8.07;4.82;;;;;;;6.60;87.70;102372.31;6121510;23;20025;-86
2022/11/11 08:02:12;;;;;;;10.27;6.18;;;;;;;6.70;87.16;102372.25;6121402;23;20116;-87
2022/11/11 08:05:37;;;;;;;6.72;5.15;;;;;;;6.72;87.07;102386.09;6121611;23;20363;-86
2022/11/11 08:09:40;;;;;;;6.15;4.38;;;;;;;6.66;86.59;102380.94;6121359;23;20079;-87
2022/11/11 08:17:46;;;;;;;6.22;5.32;;;;;;;6.65;86.85;102389.63;6131389;23;20509;-87
2022/11/11 08:21:10;;;;;;;6.90;5.05;;;;;;;6.59;87.54;102394.84;6121495;23;20080;-86
2022/11/11 08:24:59;;;;;;;6.40;4.93;;;;;;;6.63;87.42;102387.88;6121855;23;20025;-87
2022/11/11 08:38:23;;;;;;;6.25;5.35;;;;;;;6.81;85.51;102389.53;6121330;23;20028;-87
2022/11/11 08:42:14;;;;;;;5.30;4.25;;;;;;;6.72;86.67;102386.09;6120992;23;20028;-88
2022/11/11 08:45:39;;;;;;;5.57;4.28;;;;;;;6.45;88.08;102381.09;6121447;23;20106;-86
2022/11/11 08:49:50;;;;;;;6.75;4.30;;;;;;;6.49;87.94;102383.63;6117894;23;20029;-86
2022/11/11 08:53:12;;;;;;;5.70;4.25;;;;;;;6.47;87.66;102374.97;6098980;23;20025;-86
2022/11/11 08:56:46;;;;;;;;;;;;;;;6.66;87.41;102375.72;6116984;23;20395;-86
2022/11/11 09:00:14;;;;;;;6.53;4.28;;;;;;;6.65;87.84;102368.81;6117467;23;19920;-86
2022/11/11 09:03:37;;;;;;;9.97;4.93;;;;;;;6.65;87.05;102374.03;6116354;23;20080;-84
2022/11/11 09:07:39;;;;;;;6.65;4.35;;;;;;;6.70;87.52;102377.47;6102128;23;20284;-89
2022/11/11 09:11:35;;;;;;;8.00;4.55;;;;;;;6.64;88.19;102372.31;6116654;23;20025;-85
2022/11/11 09:20:06;;;;;;;6.05;3.97;;;;;;;6.65;87.54;102381.81;6117081;23;20359;-88
2022/11/11 09:24:33;;;;;;;;;;;;;;;;;;;;;
2022/11/11 09:28:17;;;;;;;5.13;3.92;;;;;;;6.67;87.67;102374.88;6116388;23;20087;-88
2022/11/11 09:37:18;;;;;;;11.15;4.68;;;;;;;6.88;86.58;102386.00;6119922;23;20033;-88
2022/11/11 09:40:57;;;;;;;5.57;4.60;;;;;;;6.97;86.50;102381.59;6087512;23;20472;-77
2022/11/11 09:44:33;;;;;;;4.70;4.00;;;;;;;6.92;87.19;102390.28;6087549;23;20021;-77
2022/11/11 09:47:59;;;;;;;4.30;3.65;;;;;;;6.96;87.65;102389.41;6086149;23;20072;-77
2022/11/11 09:51:40;;;;;;;6.63;4.20;;;;;;;7.23;87.42;102388.31;6086434;23;20053;-77
2022/11/11 09:55:19;;;;;;;8.35;5.20;;;;;;;7.20;87.13;102399.59;6086801;23;20026;-77
2022/11/11 09:58:56;;;;;;;6.95;3.47;;;;;;;7.29;86.98;102397.81;6086843;23;20090;-78
2022/11/11 10:02:46;;;;;;;3.70;2.85;;;;;;;7.51;86.39;102399.34;6086021;23;20025;-77
2022/11/11 10:06:13;;;;;;;5.13;2.92;;;;;;;7.46;85.49;102401.13;6088033;23;20105;-77
2022/11/11 10:09:53;;;;;;;5.05;3.17;;;;;;;7.42;85.55;102391.63;6115490;22;20367;-77
2022/11/11 10:13:16;;;;;;;5.35;3.42;;;;;;;7.49;85.54;102397.63;6116641;23;20087;-77
2022/11/11 10:17:01;;;;;;;4.85;3.20;;;;;;;7.46;86.18;102396.78;6118790;23;20410;-77
2022/11/11 10:20:32;;;;;;;4.68;3.30;;;;;;;7.56;85.17;102397.56;6121364;23;20495;-77
2022/11/11 10:24:00;;;;;;;5.20;3.58;;;;;;;7.44;85.87;102387.28;6124262;23;20515;-77
2022/11/11 10:27:22;;;;;;;5.32;3.05;;;;;;;7.49;85.89;102389.81;6124231;23;20032;-77
2022/11/11 10:30:46;;;;;;;5.07;3.65;;;;;;;7.42;86.02;102395.09;6122090;23;20460;-77
2022/11/11 10:34:16;;;;;;;4.88;3.45;;;;;;;7.54;85.63;102388.91;6121063;23;20024;-77
2022/11/11 10:37:42;;;;;;;6.25;3.38;;;;;;;7.50;86.48;102392.44;6121092;22;20097;-77
2022/11/11 10:41:19;;;;;;;5.28;3.92;;;;;;;7.66;85.07;102383.59;6121334;23;20033;-77
2022/11/11 10:44:42;;;;;;;5.95;3.90;;;;;;;7.46;86.10;102393.31;6121118;23;20071;-77
2022/11/11 10:48:20;;;;;;;5.25;3.85;;;;;;;7.60;86.37;102388.84;6121118;23;20033;-77
2022/11/11 10:51:50;;;;;;;4.90;3.55;;;;;;;7.64;86.90;102379.25;6114045;22;20296;-77
2022/11/11 10:55:12;;;;;;;5.75;3.67;;;;;;;7.75;86.17;102392.16;6116724;23;20079;-77
2022/11/11 10:58:42;;;;;;;5.05;3.55;;;;;;;7.63;86.88;102394.03;6115036;23;20028;-77
2022/11/11 11:02:22;;;;;;;4.72;3.80;;;;;;;7.72;87.33;102386.97;6116232;22;20029;-77
2022/11/11 11:05:46;;;;;;;4.32;3.25;;;;;;;8.00;85.36;102374.50;6115984;23;20028;-77
2022/11/11 11:09:16;;;;;;;5.30;4.03;;;;;;;8.02;85.74;102376.22;6115876;23;20072;-77
2022/11/11 11:12:45;;;;;;;5.97;4.20;;;;;;;7.88;85.25;102372.91;6115705;22;20493;-77
2022/11/11 11:16:16;;;;;;;4.70;3.80;;;;;;;7.83;86.03;102365.16;6116772;22;20028;-77
2022/11/11 11:19:38;;;;;;;5.78;4.18;;;;;;;7.87;86.35;102356.44;6113594;22;20054;-77
2022/11/11 11:23:01;;;;;;;6.20;3.70;;;;;;;7.97;85.98;102356.31;6116753;23;20026;-77
2022/11/11 11:26:56;;;;;;;7.35;4.05;;;;;;;7.89;86.48;102344.25;6115575;23;20075;-77
2022/11/11 11:30:23;;;;;;;5.20;3.70;;;;;;;7.97;86.48;102351.97;6116271;23;20020;-77
2022/11/11 11:33:55;;;;;;;4.82;3.80;;;;;;;8.07;86.82;102353.59;6114562;22;20058;-77
2022/11/11 11:37:18;;;;;;;4.88;3.92;;;;;;;8.34;86.08;102351.50;6115170;22;20079;-77
2022/11/11 11:40:50;;;;;;;6.13;4.80;;;;;;;8.53;84.99;102354.75;6102068;22;20148;-77
2022/11/11 11:44:29;;;;;;;6.97;4.60;;;;;;;8.39;85.33;102360.13;6115161;22;20044;-77
2022/11/11 11:48:19;;;;;;;5.35;4.40;;;;;;;8.45;85.41;102354.84;6114755;22;20101;-77
2022/11/11 11:51:47;;;;;;;5.20;4.15;;;;;;;8.29;85.65;102348.09;6115350;22;20032;-75
2022/11/11 11:55:21;;;;;;;5.13;4.38;;;;;;;8.47;86.05;102341.78;6113037;23;20319;-77
2022/11/11 11:59:02;;;;;;;6.97;5.05;;;;;;;8.70;85.10;102336.22;6113853;22;20382;-77
2022/11/11 12:03:01;;;;;;;6.00;4.60;;;;;;;8.85;84.80;102336.00;6113506;22;20074;-77
2022/11/11 12:06:40;;;;;;;7.25;4.80;;;;;;;8.80;85.15;102328.22;6113669;22;20456;-77
2022/11/11 12:10:28;;;;;;;6.65;3.83;;;;;;;8.74;85.25;102332.69;6115747;22;20037;-77
2022/11/11 12:14:33;;;;;;;6.63;4.40;;;;;;;8.89;84.72;102335.06;6114783;22;20525;-77
2022/11/11 12:58:37;;;;;;;;;;;;;;;8.32;91.30;102299.38;6093275;23;20512;-81
2022/11/11 13:02:08;;;;;;;10.32;8.20;;;;;;;8.73;89.92;102290.09;6092541;23;19916;-77
2022/11/11 13:05:50;;;;;;;11.35;5.47;;;;;;;8.63;89.38;102292.88;6092947;23;20026;-77
2022/11/11 13:09:43;;;;;;;8.48;4.78;;;;;;;8.77;88.59;102288.28;6092478;23;20140;-77
2022/11/11 13:13:17;;;;;;;7.18;5.80;;;;;;;8.83;88.00;102288.19;6097044;23;20093;-78
2022/11/11 13:16:39;;;;;;;7.63;5.30;;;;;;;8.84;88.05;102287.31;6092422;23;20083;-77
2022/11/11 13:20:39;;;;;;;8.55;5.72;;;;;;;8.84;87.91;102289.94;6092246;23;20073;-77
2022/11/11 13:24:03;;;;;;;13.15;7.50;;;;;;;8.78;88.11;102290.03;6092317;23;20060;-77
2022/11/11 13:27:47;;;;;;;8.35;6.13;;;;;;;8.84;88.19;102293.41;6092229;23;20025;-77
2022/11/11 13:31:12;;;;;;;8.23;5.15;;;;;;;8.74;88.99;102296.16;6092387;23;20024;-77
2022/11/11 13:34:35;;;;;;;6.57;5.00;;;;;;;8.68;89.26;102304.09;6092345;23;20149;-77
2022/11/11 13:37:57;;;;;;;10.25;5.85;;;;;;;8.72;88.97;102298.81;6092136;23;20227;-77
2022/11/11 13:41:24;;;;;;;9.70;4.90;;;;;;;8.67;89.86;102297.16;6101006;22;20079;-77
2022/11/11 13:44:57;;;;;;;10.65;5.88;;;;;;;8.79;89.57;102304.78;6121279;23;20389;-76
2022/11/11 13:48:27;;;;;;;11.13;5.97;;;;;;;8.86;89.49;102309.00;6115267;23;20043;-77
2022/11/11 13:52:17;;;;;;;12.88;9.15;;;;;;;8.79;90.02;102310.88;6115978;22;20056;-77
2022/11/11 13:55:46;;;;;;;13.27;7.20;;;;;;;8.80;89.84;102314.31;6116681;22;20024;-77
2022/11/11 13:59:32;;;;;;;13.00;9.30;;;;;;;8.81;89.57;102309.09;6115956;22;20392;-77
2022/11/11 14:03:31;;;;;;;9.32;6.85;;;;;;;8.72;90.32;102301.41;6116357;22;20479;-77
2022/11/11 14:06:54;;;;;;;9.60;6.47;;;;;;;8.87;89.73;102305.53;6113062;23;20056;-77
2022/11/11 14:10:16;;;;;;;24.23;14.30;;;;;;;8.87;89.74;102300.31;6114826;22;20404;-77
2022/11/11 14:13:40;;;;;;;25.45;18.95;;;;;;;8.84;89.73;102293.41;6115819;22;20048;-77
2022/11/11 14:17:13;;;;;;;31.65;20.70;;;;;;;8.75;89.50;102295.31;6115758;23;20499;-77
2022/11/11 14:20:41;;;;;;;15.65;11.73;;;;;;;8.55;91.86;102296.47;6114160;22;20041;-76
2022/11/11 14:24:05;;;;;;;14.07;7.55;;;;;;;8.64;92.25;102298.06;6116007;22;20029;-76
2022/11/11 14:27:31;;;;;;;8.68;6.70;;;;;;;8.55;92.64;102286.06;6115500;23;20036;-76
2022/11/11 14:30:58;;;;;;;11.90;6.60;;;;;;;8.75;91.40;102288.34;6116301;23;20025;-77
2022/11/11 14:34:45;;;;;;;10.93;7.53;;;;;;;8.79;90.87;102283.94;6114591;23;20245;-77
2022/11/11 14:38:16;;;;;;;12.48;8.65;;;;;;;8.81;90.64;102279.56;6116294;22;20029;-77
2022/11/11 14:41:47;;;;;;;15.27;10.75;;;;;;;8.77;90.51;102277.88;6115527;22;20105;-78
2022/11/11 14:45:22;;;;;;;12.40;8.45;;;;;;;8.83;90.23;102281.22;6115662;23;20041;-77
2022/11/11 14:48:49;;;;;;;12.07;8.23;;;;;;;8.75;90.56;102270.06;6114349;22;20049;-77
2022/11/11 14:52:29;;;;;;;22.45;12.18;;;;;;;8.74;90.18;102270.09;6115734;22;20563;-77
2022/11/11 14:55:54;;;;;;;26.08;16.55;;;;;;;8.52;91.33;102274.78;6116286;23;20144;-77
2022/11/11 14:59:21;;;;;;;30.02;17.58;;;;;;;8.61;90.81;102277.25;6115713;23;20072;-78
2022/11/11 15:02:55;;;;;;;18.98;13.45;;;;;;;8.58;90.27;102278.19;6116728;23;20029;-78
2022/11/11 15:06:29;;;;;;;11.95;9.10;;;;;;;8.44;91.04;102285.34;6115714;22;20079;-78
2022/11/11 15:09:57;;;;;;;16.08;9.00;;;;;;;8.50;91.58;102280.03;6115464;22;20489;-78
2022/11/11 15:13:48;;;;;;;13.68;9.05;;;;;;;8.46;91.48;102278.38;6116373;23;20353;-78
2022/11/11 15:17:38;;;;;;;10.50;8.20;;;;;;;8.30;92.25;102275.09;6115630;23;20029;-78
2022/11/11 15:21:08;;;;;;;13.82;8.07;;;;;;;8.41;90.96;102277.56;6101791;22;20102;-78
2022/11/11 15:25:09;;;;;;;17.10;8.77;;;;;;;8.27;91.39;102276.91;6115238;22;20517;-78
2022/11/11 15:29:00;;;;;;;12.45;8.35;;;;;;;8.20;92.37;102280.44;6117383;23;20079;-77
2022/11/11 15:32:59;;;;;;;14.18;10.55;;;;;;;8.16;91.14;102270.06;6115628;23;20025;-78
2022/11/11 15:36:41;;;;;;;14.05;11.18;;;;;;;8.16;90.23;102269.22;6115935;22;20029;-78
2022/11/11 15:40:22;;;;;;;16.58;9.38;;;;;;;7.91;91.85;102268.69;6115388;22;20032;-77
2022/11/11 15:43:51;;;;;;;12.15;7.80;;;;;;;8.08;91.17;102271.94;6101463;22;20133;-78
2022/11/11 15:47:21;;;;;;;10.02;6.78;;;;;;;7.88;91.06;102274.81;6115528;23;20033;-77
2022/11/11 15:50:47;;;;;;;10.48;6.47;;;;;;;7.83;91.00;102280.97;6115597;22;20029;-77
2022/11/11 15:54:21;;;;;;;10.63;5.78;;;;;;;7.72;91.34;102272.41;6104350;22;20032;-77
2022/11/11 15:57:46;;;;;;;10.40;6.70;;;;;;;7.72;91.41;102260.25;6117107;22;20029;-77
2022/11/11 18:37:19;;;;;;;9.52;5.30;;;;;;;5.99;86.88;102335.38;6119289;23;20029;-77
2022/11/11 18:40:42;;;;;;;7.60;3.95;;;;;;;5.88;87.08;102331.09;6119818;23;20047;-77
2022/11/11 18:44:07;;;;;;;5.80;4.53;;;;;;;6.08;86.19;102329.28;6119668;23;20524;-77
2022/11/11 18:47:31;;;;;;;7.10;5.15;;;;;;;6.06;86.91;102336.22;6119829;23;20029;-77
2022/11/11 18:50:55;;;;;;;7.07;4.75;;;;;;;5.85;86.44;102341.50;6119713;23;20025;-77
2022/11/11 18:54:18;;;;;;;;;;;;;;;5.86;86.58;102335.41;6119127;23;20033;-77
2022/11/11 18:57:42;;;;;;;8.38;4.43;;;;;;;5.92;85.83;102338.84;6119763;23;19916;-77
2022/11/11 19:01:22;;;;;;;9.40;4.72;;;;;;;5.86;85.86;102345.81;6119464;23;20071;-77
2022/11/11 19:04:50;;;;;;;8.02;4.57;;;;;;;5.94;86.01;102349.28;6117050;23;20028;-77
2022/11/11 19:08:16;;;;;;;7.47;3.90;;;;;;;6.08;85.50;102360.47;6118086;23;20032;-77
2022/11/11 19:11:44;;;;;;;7.28;4.72;;;;;;;6.34;84.63;102360.34;6118378;23;20445;-77
2022/11/11 19:15:10;;;;;;;9.80;4.47;;;;;;;6.16;85.50;102368.22;6118347;23;20033;-77
2022/11/11 19:18:36;;;;;;;7.05;4.00;;;;;;;6.22;85.33;102366.47;6111197;23;20029;-77
2022/11/11 19:22:02;;;;;;;5.38;3.90;;;;;;;6.45;84.62;102370.69;6115955;23;20496;-77
2022/11/11 19:25:31;;;;;;;7.13;4.20;;;;;;;6.34;85.45;102377.66;6119175;23;20053;-77
2022/11/11 19:28:57;;;;;;;9.45;4.88;;;;;;;6.43;84.96;102372.41;6105743;23;20369;-77
2022/11/11 19:32:21;;;;;;;6.45;5.05;;;;;;;6.40;85.58;102372.44;6117635;23;20025;-77
2022/11/11 19:57:15;;;;;;;7.25;5.15;;;;;;;6.69;85.63;102367.06;6120304;23;20032;-78
2022/11/11 20:00:39;;;;;;;12.35;4.40;;;;;;;6.74;85.91;102373.09;6120674;23;20029;-78
2022/11/11 20:04:11;;;;;;;7.43;4.78;;;;;;;6.69;85.89;102380.91;6108052;23;20353;-78
2022/11/11 20:07:35;;;;;;;7.45;4.68;;;;;;;6.74;85.77;102381.75;6106683;23;20068;-78
2022/11/11 20:11:08;;;;;;;6.35;3.60;;;;;;;6.72;85.77;102391.28;6120187;23;20029;-78
2022/11/11 20:14:37;;;;;;;7.38;3.50;;;;;;;6.65;86.39;102391.34;6117493;23;20497;-78
2022/11/11 20:18:06;;;;;;;7.85;4.30;;;;;;;6.82;85.61;102397.28;6120759;23;20068;-78
2022/11/11 20:21:30;;;;;;;8.35;4.32;;;;;;;6.76;86.45;102402.53;6121433;23;20054;-78
2022/11/11 20:24:55;;;;;;;7.63;4.35;;;;;;;6.75;86.32;102401.69;6120504;23;20118;-79
2022/11/11 20:28:21;;;;;;;15.48;5.57;;;;;;;6.80;86.89;102404.25;6120546;23;20029;-78
2022/11/11 20:31:46;;;;;;;13.20;5.53;;;;;;;6.70;88.22;102402.56;6119813;23;20127;-77
2022/11/11 20:35:13;;;;;;;16.55;7.03;;;;;;;6.68;88.75;102406.94;6120058;23;20071;-78
2022/11/11 20:38:44;;;;;;;17.25;7.38;;;;;;;6.63;89.22;102408.69;6120263;23;20044;-78
2022/11/11 20:42:09;;;;;;;19.92;6.65;;;;;;;6.60;90.07;102404.38;6119027;23;20333;-77
2022/11/11 20:45:37;;;;;;;15.95;8.27;;;;;;;6.57;90.50;102401.78;6121226;23;20033;-77
2022/11/11 20:49:00;;;;;;;14.25;7.65;;;;;;;6.60;90.97;102412.16;6120941;23;20021;-77
2022/11/11 20:52:22;;;;;;;20.00;8.00;;;;;;;6.67;90.83;102408.69;6120264;23;20028;-77
2022/11/11 20:55:46;;;;;;;25.92;8.18;;;;;;;6.60;92.81;102406.97;6119676;23;20029;-77
2022/11/11 20:59:09;;;;;;;24.83;10.13;;;;;;;6.82;91.33;102402.50;6118625;23;20095;-77
2022/11/11 21:02:32;;;;;;;39.10;12.82;;;;;;;6.62;92.18;102405.22;6119095;23;20611;-78
2022/11/11 21:06:04;;;;;;;29.80;10.35;;;;;;;6.59;93.46;102400.03;6120421;23;20409;-78
2022/11/11 21:09:29;;;;;;;30.95;10.45;;;;;;;6.62;93.08;102400.03;6119848;23;20024;-78
2022/11/11 21:12:54;;;;;;;34.83;10.20;;;;;;;6.70;93.38;102405.16;6118410;23;20041;-78
2022/11/11 21:16:30;;;;;;;26.52;10.23;;;;;;;6.79;92.81;102409.47;6120512;23;20136;-78
2022/11/11 21:19:54;;;;;;;30.00;8.57;;;;;;;6.70;93.04;102403.47;6119198;23;20084;-78
2022/11/11 21:23:18;;;;;;;17.52;10.30;;;;;;;6.92;92.09;102403.28;6119936;23;20087;-77
2022/11/11 21:26:40;;;;;;;17.65;9.20;;;;;;;6.78;93.01;102403.41;6120112;23;20462;-78